createdAt,value
2023-05-05T00:01:00.901Z,9.33
2023-05-05T00:03:30.134Z,9.31
2023-05-05T00:05:58.905Z,9.31
2023-05-05T00:08:27.137Z,9.27
2023-05-05T00:10:56.041Z,9.30
2023-05-05T00:13:25.711Z,9.30
2023-05-05T00:15:55.246Z,9.30
2023-05-05T00:18:23.389Z,9.29
2023-05-05T00:20:51.614Z,9.27
2023-05-05T00:23:20.868Z,9.25
2023-05-05T00:25:49.049Z,9.23
2023-05-05T00:28:17.145Z,9.21
2023-05-05T00:30:46.671Z,9.22
2023-05-05T00:33:14.831Z,9.21
2023-05-05T00:35:43.271Z,9.22
2023-05-05T00:38:11.474Z,9.22
2023-05-05T00:40:39.523Z,9.21
2023-05-05T00:43:08.301Z,9.20
2023-05-05T00:45:37.453Z,9.22
2023-05-05T00:48:07.873Z,9.20
2023-05-05T00:50:36.450Z,9.17
2023-05-05T00:53:07.023Z,9.17
2023-05-05T00:55:36.648Z,9.18
2023-05-05T00:58:05.411Z,9.16
2023-05-05T01:00:35.198Z,9.16
2023-05-05T01:03:03.694Z,9.13
2023-05-05T01:05:43.581Z,9.10
2023-05-05T01:08:28.282Z,9.05
2023-05-05T01:11:00.642Z,9.03
2023-05-05T01:13:38.492Z,9.03
2023-05-05T01:16:16.063Z,9.01
2023-05-05T01:18:51.222Z,8.99
2023-05-05T01:21:27.572Z,8.98
2023-05-05T01:24:21.076Z,8.97
2023-05-05T01:27:00.240Z,8.99
2023-05-05T01:29:42.361Z,9.00
2023-05-05T01:32:15.975Z,9.01
2023-05-05T01:34:46.370Z,9.02
2023-05-05T01:37:20.683Z,9.02
2023-05-05T01:39:53.138Z,9.03
2023-05-05T01:42:23.120Z,9.04
2023-05-05T01:44:54.127Z,9.04
2023-05-05T01:47:24.819Z,9.04
2023-05-05T01:49:54.122Z,9.03
2023-05-05T01:52:25.204Z,9.02
2023-05-05T01:54:54.288Z,9.02
2023-05-05T01:57:25.473Z,9.02
2023-05-05T01:59:55.112Z,9.02
2023-05-05T02:02:27.262Z,9.01
2023-05-05T02:04:56.987Z,8.99
2023-05-05T02:07:26.318Z,8.97
2023-05-05T02:09:55.398Z,8.95
2023-05-05T02:12:24.437Z,8.95
2023-05-05T02:14:54.320Z,8.95
2023-05-05T02:17:25.203Z,8.96
2023-05-05T02:19:54.179Z,8.98
2023-05-05T02:22:22.224Z,8.99
2023-05-05T02:24:50.375Z,9.00
2023-05-05T02:27:22.834Z,9.01
2023-05-05T02:29:55.276Z,9.02
2023-05-05T02:32:32.620Z,9.04
2023-05-05T02:35:08.338Z,9.04
2023-05-05T02:37:41.094Z,9.06
2023-05-05T02:40:11.521Z,9.06
2023-05-05T02:42:42.624Z,9.04
2023-05-05T02:45:16.336Z,9.03
2023-05-05T02:47:49.161Z,9.00
2023-05-05T02:50:17.587Z,8.95
2023-05-05T02:52:54.462Z,8.95
2023-05-05T02:55:24.479Z,8.96
2023-05-05T02:58:05.035Z,8.98
2023-05-05T03:00:42.545Z,8.98
2023-05-05T03:03:19.711Z,8.96
2023-05-05T03:05:56.831Z,8.95
2023-05-05T03:08:31.143Z,8.95
2023-05-05T03:11:01.162Z,8.96
2023-05-05T03:13:30.552Z,8.98
2023-05-05T03:15:59.852Z,8.99
2023-05-05T03:18:30.984Z,9.00
2023-05-05T03:21:07.960Z,8.99
2023-05-05T03:23:38.496Z,9.02
2023-05-05T03:26:11.940Z,9.01
2023-05-05T03:28:43.717Z,9.03
2023-05-05T03:31:19.704Z,9.02
2023-05-05T03:33:53.400Z,9.01
2023-05-05T03:36:26.191Z,9.00
2023-05-05T03:38:56.669Z,8.99
2023-05-05T03:41:26.974Z,8.96
2023-05-05T03:43:55.808Z,8.92
2023-05-05T03:46:23.895Z,8.86
2023-05-05T03:48:53.359Z,8.79
2023-05-05T03:51:21.468Z,8.74
2023-05-05T03:53:49.680Z,8.72
2023-05-05T03:56:17.841Z,8.67
2023-05-05T03:58:46.217Z,8.60
2023-05-05T04:01:14.964Z,8.55
2023-05-05T04:03:43.129Z,8.50
2023-05-05T04:06:12.710Z,8.51
2023-05-05T04:08:41.403Z,8.47
2023-05-05T04:11:09.550Z,8.45
2023-05-05T04:13:37.918Z,8.40
2023-05-05T04:16:06.257Z,8.35
2023-05-05T04:18:34.405Z,8.31
2023-05-05T04:21:02.863Z,8.29
2023-05-05T04:23:32.345Z,8.25
2023-05-05T04:26:01.026Z,8.23
2023-05-05T04:28:29.865Z,8.23
2023-05-05T04:30:59.396Z,8.24
2023-05-05T04:33:27.872Z,8.24
2023-05-05T04:35:57.095Z,8.24
2023-05-05T04:38:25.921Z,8.20
2023-05-05T04:40:56.003Z,8.21
2023-05-05T04:43:24.093Z,8.24
2023-05-05T04:45:54.849Z,8.20
2023-05-05T04:48:26.075Z,8.20
2023-05-05T04:50:54.315Z,8.19
2023-05-05T04:53:22.604Z,8.20
2023-05-05T04:55:50.861Z,8.20
2023-05-05T04:58:20.722Z,8.20
2023-05-05T05:00:48.846Z,8.16
2023-05-05T05:03:17.042Z,8.16
2023-05-05T05:05:45.351Z,8.20
2023-05-05T05:08:13.416Z,8.27
2023-05-05T05:10:41.551Z,8.29
2023-05-05T05:13:11.902Z,8.30
2023-05-05T05:15:42.362Z,8.32
2023-05-05T05:18:10.468Z,8.33
2023-05-05T05:20:39.646Z,8.35
2023-05-05T05:23:07.863Z,8.34
2023-05-05T05:25:40.292Z,8.34
2023-05-05T05:28:10.707Z,8.34
2023-05-05T05:30:47.363Z,8.38
2023-05-05T05:33:16.121Z,8.41
2023-05-05T05:35:45.781Z,8.44
2023-05-05T05:38:14.514Z,8.49
2023-05-05T05:40:43.251Z,8.56
2023-05-05T05:43:11.362Z,8.63
2023-05-05T05:45:40.175Z,8.67
2023-05-05T05:48:10.859Z,8.69
2023-05-05T05:50:39.135Z,8.71
2023-05-05T05:53:07.319Z,8.73
2023-05-05T05:55:35.649Z,8.74
2023-05-05T05:58:03.823Z,8.77
2023-05-05T06:00:32.099Z,8.78
2023-05-05T06:03:06.309Z,8.80
2023-05-05T06:05:38.947Z,8.82
2023-05-05T06:08:07.767Z,8.85
2023-05-05T06:10:41.668Z,8.89
2023-05-05T06:13:13.796Z,8.92
2023-05-05T06:15:46.283Z,8.94
2023-05-05T06:18:15.708Z,8.94
2023-05-05T06:20:45.338Z,8.97
2023-05-05T06:23:16.160Z,8.99
2023-05-05T06:25:49.430Z,9.02
2023-05-05T06:28:17.741Z,9.05
2023-05-05T06:30:45.898Z,9.04
2023-05-05T06:33:14.068Z,9.08
2023-05-05T06:35:42.149Z,9.10
2023-05-05T06:38:13.219Z,9.11
2023-05-05T06:40:42.210Z,9.15
2023-05-05T06:43:10.310Z,9.16
2023-05-05T06:45:43.943Z,9.22
2023-05-05T06:48:12.117Z,9.32
2023-05-05T06:50:40.117Z,9.39
2023-05-05T06:53:08.253Z,9.46
2023-05-05T06:55:37.649Z,9.52
2023-05-05T06:58:05.831Z,9.57
2023-05-05T07:00:34.073Z,9.57
2023-05-05T07:03:02.488Z,9.63
2023-05-05T07:05:30.621Z,9.66
2023-05-05T07:08:00.053Z,9.69
2023-05-05T07:10:28.841Z,9.75
2023-05-05T07:12:58.673Z,9.88
2023-05-05T07:15:29.289Z,9.91
2023-05-05T07:17:58.449Z,9.93
2023-05-05T07:20:27.008Z,10.02
2023-05-05T07:22:55.245Z,10.12
2023-05-05T07:25:23.386Z,10.22
2023-05-05T07:27:51.955Z,10.31
2023-05-05T07:30:21.700Z,10.39
2023-05-05T07:32:51.207Z,10.40
2023-05-05T07:35:19.595Z,10.42
2023-05-05T07:37:47.931Z,10.55
2023-05-05T07:40:16.317Z,10.59
2023-05-05T07:42:44.460Z,10.64
2023-05-05T07:45:12.694Z,10.68
2023-05-05T07:47:42.152Z,10.73
2023-05-05T07:50:12.845Z,10.77
2023-05-05T07:55:12.055Z,10.72
2023-05-05T07:57:40.157Z,10.79
2023-05-05T08:00:09.585Z,10.83
2023-05-05T08:02:42.248Z,10.83
2023-05-05T08:05:10.912Z,10.85
2023-05-05T08:07:41.502Z,11.00
2023-05-05T08:10:11.466Z,11.13
2023-05-05T08:12:39.757Z,11.09
2023-05-05T08:15:08.777Z,11.02
2023-05-05T08:17:57.262Z,10.97
2023-05-05T08:20:29.545Z,10.95
2023-05-05T08:22:57.717Z,10.88
2023-05-05T08:25:26.936Z,10.90
2023-05-05T08:27:55.725Z,10.97
2023-05-05T08:30:24.203Z,11.13
2023-05-05T08:32:52.913Z,11.25
2023-05-05T08:35:22.550Z,11.24
2023-05-05T08:37:52.309Z,11.18
2023-05-05T08:40:22.860Z,11.12
2023-05-05T08:42:51.114Z,11.18
2023-05-05T08:45:19.153Z,11.26
2023-05-05T08:47:47.395Z,11.26
2023-05-05T08:50:17.651Z,11.23
2023-05-05T08:52:55.010Z,11.25
2023-05-05T08:55:25.619Z,11.29
2023-05-05T08:57:56.434Z,11.27
2023-05-05T09:00:26.564Z,11.20
2023-05-05T09:02:57.255Z,11.13
2023-05-05T09:05:25.748Z,11.08
2023-05-05T09:07:55.297Z,11.11
2023-05-05T09:10:23.541Z,11.15
2023-05-05T09:12:52.036Z,11.11
2023-05-05T09:15:20.173Z,11.12
2023-05-05T09:17:48.575Z,11.19
2023-05-05T09:20:16.953Z,11.36
2023-05-05T09:22:46.701Z,11.57
2023-05-05T09:25:17.232Z,11.84
2023-05-05T09:27:47.000Z,12.06
2023-05-05T09:30:17.675Z,12.28
2023-05-05T09:32:47.425Z,12.58
2023-05-05T09:35:16.747Z,12.71
2023-05-05T09:37:45.294Z,12.87
2023-05-05T09:40:15.588Z,12.95
2023-05-05T09:42:45.730Z,12.74
2023-05-05T09:45:32.199Z,12.83
2023-05-05T09:48:00.969Z,12.90
2023-05-05T09:50:31.153Z,13.13
2023-05-05T09:53:01.078Z,13.46
2023-05-05T09:55:31.079Z,13.81
2023-05-05T09:58:19.496Z,13.98
2023-05-05T10:00:48.043Z,13.90
2023-05-05T10:03:16.146Z,13.69
2023-05-05T10:05:51.810Z,13.93
2023-05-05T10:08:21.905Z,14.06
2023-05-05T10:10:53.253Z,13.75
2023-05-05T10:13:24.233Z,13.48
2023-05-05T10:15:53.967Z,13.28
2023-05-05T10:18:24.361Z,13.09
2023-05-05T10:20:58.471Z,12.94
2023-05-05T10:23:34.445Z,13.02
2023-05-05T10:26:06.710Z,13.43
2023-05-05T10:28:42.069Z,14.06
2023-05-05T10:31:25.915Z,14.64
2023-05-05T10:34:01.267Z,14.45
2023-05-05T10:36:31.737Z,14.16
2023-05-05T10:39:01.757Z,13.98
2023-05-05T10:41:30.955Z,13.85
2023-05-05T10:44:03.637Z,13.65
2023-05-05T10:46:33.167Z,13.47
2023-05-05T10:49:11.126Z,13.38
2023-05-05T10:51:48.180Z,13.40
2023-05-05T10:54:24.461Z,13.94
2023-05-05T10:56:54.256Z,14.07
2023-05-05T10:59:42.959Z,14.21
2023-05-05T11:02:26.500Z,14.81
2023-05-05T11:05:17.852Z,15.24
2023-05-05T11:07:47.279Z,15.16
2023-05-05T11:10:16.898Z,14.91
2023-05-05T11:13:22.234Z,14.52
2023-05-05T11:15:52.594Z,14.14
2023-05-05T11:18:39.751Z,13.93
2023-05-05T11:21:18.192Z,13.76
2023-05-05T11:23:48.820Z,13.71
2023-05-05T11:26:18.079Z,13.81
2023-05-05T11:28:57.411Z,13.90
2023-05-05T11:31:27.434Z,14.00
2023-05-05T11:33:55.672Z,13.99
2023-05-05T11:36:41.325Z,13.92
2023-05-05T11:39:20.205Z,13.76
2023-05-05T11:42:17.267Z,13.59
2023-05-05T11:44:45.396Z,13.33
2023-05-05T11:47:33.902Z,12.97
2023-05-05T11:50:23.067Z,12.74
2023-05-05T11:52:51.729Z,12.53
2023-05-05T11:55:23.275Z,12.37
2023-05-05T11:57:51.645Z,12.27
2023-05-05T12:00:20.915Z,12.26
2023-05-05T12:02:57.792Z,12.50
2023-05-05T12:05:26.231Z,12.73
2023-05-05T12:07:59.238Z,13.52
2023-05-05T12:10:27.429Z,14.09
2023-05-05T12:12:55.961Z,14.21
2023-05-05T12:15:31.601Z,14.52
2023-05-05T12:18:03.004Z,15.25
2023-05-05T12:20:36.631Z,16.02
2023-05-05T12:23:05.642Z,15.74
2023-05-05T12:25:40.455Z,15.02
2023-05-05T12:28:09.995Z,14.42
2023-05-05T12:30:38.254Z,14.09
2023-05-05T12:33:09.265Z,14.25
2023-05-05T12:35:37.789Z,14.70
2023-05-05T12:38:07.300Z,14.48
2023-05-05T12:40:55.789Z,14.05
2023-05-05T12:43:26.646Z,13.75
2023-05-05T12:46:01.353Z,13.21
2023-05-05T12:48:30.908Z,12.68
2023-05-05T12:51:13.221Z,12.34
2023-05-05T12:53:41.402Z,11.92
2023-05-05T12:56:30.439Z,11.57
2023-05-05T12:58:58.770Z,11.94
2023-05-05T13:01:26.910Z,12.96
2023-05-05T13:04:16.102Z,13.94
2023-05-05T13:06:46.229Z,14.44
2023-05-05T13:09:39.306Z,14.97
2023-05-05T13:12:12.059Z,15.38
2023-05-05T13:14:40.892Z,15.65
2023-05-05T13:17:09.326Z,15.33
2023-05-05T13:19:42.117Z,14.65
2023-05-05T13:22:11.077Z,14.03
2023-05-05T13:24:50.694Z,14.46
2023-05-05T13:27:19.623Z,14.34
2023-05-05T13:29:47.877Z,14.13
2023-05-05T13:32:16.083Z,13.90
2023-05-05T13:34:46.088Z,13.66
2023-05-05T13:37:14.538Z,13.45
2023-05-05T13:39:42.677Z,13.34
2023-05-05T13:42:10.876Z,13.15
2023-05-05T13:44:39.425Z,12.90
2023-05-05T13:47:07.654Z,12.62
2023-05-05T13:49:36.546Z,12.40
2023-05-05T13:52:06.222Z,12.29
2023-05-05T13:54:34.282Z,12.18
2023-05-05T13:57:03.415Z,12.13
2023-05-05T13:59:31.596Z,12.07
2023-05-05T14:02:00.996Z,12.04
2023-05-05T14:04:29.085Z,12.02
2023-05-05T14:06:58.562Z,11.99
2023-05-05T14:09:28.043Z,11.93
2023-05-05T14:11:56.163Z,11.92
2023-05-05T14:14:24.261Z,11.92
2023-05-05T14:16:52.518Z,11.94
2023-05-05T14:19:20.732Z,12.02
2023-05-05T14:21:48.872Z,12.14
2023-05-05T14:24:16.974Z,12.24
2023-05-05T14:26:46.534Z,12.35
2023-05-05T14:29:14.686Z,12.49
2023-05-05T14:31:42.841Z,12.55
2023-05-05T14:34:11.080Z,12.55
2023-05-05T14:36:39.300Z,12.52
2023-05-05T14:39:07.422Z,12.52
2023-05-05T14:41:35.599Z,12.63
2023-05-05T14:44:04.944Z,12.87
2023-05-05T14:46:33.432Z,13.32
2023-05-05T14:49:01.537Z,13.99
2023-05-05T14:51:29.719Z,14.53
2023-05-05T14:53:57.762Z,14.93
2023-05-05T14:56:26.918Z,15.39
2023-05-05T14:58:55.340Z,15.63
2023-05-05T15:01:25.848Z,15.86
2023-05-05T15:03:54.211Z,15.85
2023-05-05T15:06:22.399Z,15.67
2023-05-05T15:08:50.701Z,15.57
2023-05-05T15:11:18.861Z,15.45
2023-05-05T15:13:46.942Z,15.27
2023-05-05T15:16:15.181Z,14.86
2023-05-05T15:18:44.582Z,14.41
2023-05-05T15:21:12.799Z,14.05
2023-05-05T15:23:41.247Z,13.81
2023-05-05T15:26:09.319Z,13.62
2023-05-05T15:28:37.723Z,13.64
2023-05-05T15:31:06.344Z,13.81
2023-05-05T15:33:35.485Z,14.00
2023-05-05T15:36:05.135Z,14.15
2023-05-05T15:38:33.157Z,14.21
2023-05-05T15:41:01.278Z,14.24
2023-05-05T15:43:29.330Z,14.28
2023-05-05T15:45:57.396Z,14.15
2023-05-05T15:48:25.505Z,14.06
2023-05-05T15:50:53.667Z,14.00
2023-05-05T15:53:23.048Z,13.93
2023-05-05T15:55:51.288Z,13.86
2023-05-05T15:58:19.488Z,13.82
2023-05-05T16:00:47.664Z,13.82
2023-05-05T16:03:15.972Z,13.93
2023-05-05T16:05:44.178Z,14.06
2023-05-05T16:08:12.274Z,14.10
2023-05-05T16:10:41.867Z,14.13
2023-05-05T16:13:10.056Z,14.12
2023-05-05T16:15:38.291Z,14.11
2023-05-05T16:18:06.541Z,14.24
2023-05-05T16:20:34.760Z,14.43
2023-05-05T16:23:03.063Z,14.73
2023-05-05T16:25:31.209Z,15.08
2023-05-05T16:28:01.807Z,15.33
2023-05-05T16:30:30.386Z,15.52
2023-05-05T16:32:58.591Z,15.61
2023-05-05T16:35:26.816Z,15.37
2023-05-05T16:37:55.053Z,15.07
2023-05-05T16:40:23.295Z,14.86
2023-05-05T16:42:51.348Z,14.66
2023-05-05T16:45:20.820Z,14.57
2023-05-05T16:47:49.028Z,14.48
2023-05-05T16:50:17.790Z,14.32
2023-05-05T16:52:46.063Z,14.20
2023-05-05T16:55:14.441Z,14.11
2023-05-05T16:57:42.584Z,14.11
2023-05-05T17:00:12.245Z,14.10
2023-05-05T17:02:41.589Z,14.12
2023-05-05T17:05:10.818Z,14.08
2023-05-05T17:07:39.448Z,13.94
2023-05-05T17:10:08.818Z,13.90
2023-05-05T17:12:37.191Z,13.82
2023-05-05T17:15:06.997Z,13.71
2023-05-05T17:17:35.387Z,13.57
2023-05-05T17:20:05.348Z,13.46
2023-05-05T17:22:33.481Z,13.40
2023-05-05T17:25:01.649Z,13.36
2023-05-05T17:27:29.796Z,13.25
2023-05-05T17:29:58.123Z,13.16
2023-05-05T17:32:26.646Z,13.15
2023-05-05T17:34:54.785Z,13.12
2023-05-05T17:37:24.144Z,13.07
2023-05-05T17:39:52.350Z,13.01
2023-05-05T17:42:22.974Z,12.94
2023-05-05T17:44:51.157Z,12.82
2023-05-05T17:47:22.283Z,12.72
2023-05-05T17:49:50.617Z,12.64
2023-05-05T17:52:18.718Z,12.56
2023-05-05T17:54:48.823Z,12.48
2023-05-05T17:57:18.314Z,12.44
2023-05-05T17:59:46.431Z,12.41
2023-05-05T18:02:14.465Z,12.36
2023-05-05T18:04:42.729Z,12.38
2023-05-05T18:07:12.265Z,12.32
2023-05-05T18:09:40.496Z,12.29
2023-05-05T18:12:10.039Z,12.28
2023-05-05T18:14:38.242Z,12.32
2023-05-05T18:17:06.383Z,12.40
2023-05-05T18:19:34.500Z,12.40
2023-05-05T18:22:02.611Z,12.36
2023-05-05T18:24:31.818Z,12.34
2023-05-05T18:26:59.897Z,12.34
2023-05-05T18:29:29.422Z,12.34
2023-05-05T18:31:57.589Z,12.28
2023-05-05T18:34:26.272Z,12.20
2023-05-05T18:36:55.316Z,12.10
2023-05-05T18:39:23.460Z,12.03
2023-05-05T18:41:51.586Z,12.00
2023-05-05T18:44:20.103Z,11.95
2023-05-05T18:46:52.473Z,11.94
2023-05-05T18:49:23.941Z,11.86
2023-05-05T18:51:54.967Z,11.80
2023-05-05T18:54:23.427Z,11.78
2023-05-05T18:56:53.087Z,11.73
2023-05-05T18:59:22.624Z,11.66
2023-05-05T19:01:53.145Z,11.52
2023-05-05T19:04:30.710Z,11.37
2023-05-05T19:06:59.930Z,11.21
2023-05-05T19:09:28.497Z,11.07
2023-05-05T19:11:56.857Z,10.95
2023-05-05T19:14:25.016Z,10.85
2023-05-05T19:16:55.975Z,10.79
2023-05-05T19:19:24.297Z,10.71
2023-05-05T19:21:52.614Z,10.67
2023-05-05T19:24:20.791Z,10.62
2023-05-05T19:26:48.896Z,10.59
2023-05-05T19:29:17.057Z,10.52
2023-05-05T19:31:45.344Z,10.56
2023-05-05T19:34:14.842Z,10.50
2023-05-05T19:36:43.220Z,10.42
2023-05-05T19:39:13.075Z,10.34
2023-05-05T19:41:43.215Z,10.22
2023-05-05T19:44:11.456Z,10.06
2023-05-05T19:46:39.609Z,9.93
2023-05-05T19:49:07.835Z,9.85
2023-05-05T19:51:37.371Z,9.76
2023-05-05T19:54:06.118Z,9.71
2023-05-05T19:56:35.071Z,9.64
2023-05-05T19:59:06.197Z,9.63
2023-05-05T20:01:35.026Z,9.59
2023-05-05T20:04:03.958Z,9.58
2023-05-05T20:06:33.267Z,9.56
2023-05-05T20:09:02.857Z,9.55
2023-05-05T20:11:31.513Z,9.55
2023-05-05T20:14:00.166Z,9.59
2023-05-05T20:16:28.362Z,9.64
2023-05-05T20:18:57.160Z,9.73
2023-05-05T20:21:27.145Z,9.80
2023-05-05T20:23:57.049Z,9.83
2023-05-05T20:26:27.026Z,9.85
2023-05-05T20:28:56.158Z,9.86
2023-05-05T20:31:24.272Z,9.89
2023-05-05T20:33:52.969Z,9.89
2023-05-05T20:36:21.188Z,9.91
2023-05-05T20:38:49.531Z,9.96
2023-05-05T20:41:17.665Z,9.99
2023-05-05T20:43:47.032Z,10.02
2023-05-05T20:46:15.319Z,10.04
2023-05-05T20:48:43.851Z,10.05
2023-05-05T20:51:12.013Z,10.04
2023-05-05T20:53:40.090Z,10.02
2023-05-05T20:56:09.117Z,10.02
2023-05-05T20:58:37.564Z,10.01
2023-05-05T21:01:07.279Z,10.01
2023-05-05T21:03:37.535Z,10.02
2023-05-05T21:06:06.175Z,10.05
2023-05-05T21:08:34.455Z,10.04
2023-05-05T21:11:02.568Z,10.05
2023-05-05T21:13:30.663Z,10.06
2023-05-05T21:16:02.459Z,10.07
2023-05-05T21:18:32.900Z,10.07
2023-05-05T21:21:01.318Z,10.07
2023-05-05T21:23:29.417Z,10.06
2023-05-05T21:25:57.569Z,10.03
2023-05-05T21:28:25.597Z,9.97
2023-05-05T21:33:24.793Z,9.89
2023-05-05T21:35:54.258Z,9.85
2023-05-05T21:38:22.440Z,9.81
2023-05-05T21:40:50.486Z,9.80
2023-05-05T21:43:18.670Z,9.75
2023-05-05T21:45:46.704Z,9.72
2023-05-05T21:48:14.783Z,9.70
2023-05-05T21:50:43.104Z,9.70
2023-05-05T21:53:12.483Z,9.69
2023-05-05T21:55:40.500Z,9.68
2023-05-05T21:58:09.596Z,9.68
2023-05-05T22:00:37.797Z,9.66
2023-05-05T22:03:06.076Z,9.65
2023-05-05T22:05:34.184Z,9.64
2023-05-05T22:08:02.340Z,9.61
2023-05-05T22:10:31.756Z,9.62
2023-05-05T22:12:59.956Z,9.63
2023-05-05T22:15:32.810Z,9.64
2023-05-05T22:18:07.492Z,9.62
2023-05-05T22:20:35.906Z,9.61
2023-05-05T22:23:03.988Z,9.60
2023-05-05T22:25:33.360Z,9.57
2023-05-05T22:28:01.517Z,9.57
2023-05-05T22:30:29.563Z,9.56
2023-05-05T22:32:57.873Z,9.55
2023-05-05T22:35:26.058Z,9.53
2023-05-05T22:37:54.259Z,9.52
2023-05-05T22:40:22.369Z,9.52
2023-05-05T22:42:51.827Z,9.52
2023-05-05T22:45:19.969Z,9.50
2023-05-05T22:47:48.172Z,9.53
2023-05-05T22:50:16.447Z,9.54
2023-05-05T22:52:44.637Z,9.54
2023-05-05T22:55:14.699Z,9.54
2023-05-05T22:57:43.392Z,9.53
2023-05-05T23:00:14.643Z,9.52
2023-05-05T23:02:42.850Z,9.51
2023-05-05T23:05:11.638Z,9.50
2023-05-05T23:07:39.976Z,9.47
2023-05-05T23:10:08.722Z,9.44
2023-05-05T23:12:36.888Z,9.42
2023-05-05T23:15:05.639Z,9.41
2023-05-05T23:17:35.120Z,9.41
2023-05-05T23:20:04.193Z,9.41
2023-05-05T23:22:32.312Z,9.38
2023-05-05T23:25:00.498Z,9.34
2023-05-05T23:27:28.556Z,9.32
2023-05-05T23:29:56.581Z,9.30
2023-05-05T23:32:24.733Z,9.27
2023-05-05T23:34:54.123Z,9.26
2023-05-05T23:37:23.019Z,9.28
2023-05-05T23:39:51.068Z,9.29
2023-05-05T23:42:19.186Z,9.28
2023-05-05T23:44:47.189Z,9.27
2023-05-05T23:47:15.421Z,9.25
2023-05-05T23:49:43.477Z,9.22
2023-05-05T23:52:13.879Z,9.19
2023-05-05T23:54:42.193Z,9.17
2023-05-05T23:57:10.199Z,9.12
2023-05-05T23:59:38.285Z,9.07
